createdAt,value
2018-02-05T00:01:27.005Z,73.00
2018-02-05T00:03:57.920Z,71.90
2018-02-05T00:06:29.574Z,66.80
2018-02-05T00:09:01.496Z,68.00
2018-02-05T00:11:32.476Z,68.00
2018-02-05T00:14:03.420Z,69.10
2018-02-05T00:16:34.935Z,66.90
2018-02-05T00:19:05.769Z,66.90
2018-02-05T00:21:37.638Z,66.10
2018-02-05T00:24:08.578Z,63.90
2018-02-05T00:26:39.419Z,63.70
2018-02-05T00:29:10.236Z,62.40
2018-02-05T00:31:41.152Z,58.40
2018-02-05T00:34:12.148Z,55.10
2018-02-05T00:36:43.623Z,52.20
2018-02-05T00:39:14.324Z,52.20
2018-02-05T00:41:46.091Z,52.60
2018-02-05T00:44:17.967Z,50.60
2018-02-05T00:46:49.449Z,50.50
2018-02-05T00:49:20.442Z,50.50
2018-02-05T00:51:52.101Z,50.20
2018-02-05T00:54:23.595Z,49.90
2018-02-05T00:56:54.497Z,49.90
2018-02-05T00:59:26.137Z,49.70
2018-02-05T01:01:57.810Z,48.30
2018-02-05T01:04:28.590Z,48.00
2018-02-05T01:06:59.567Z,47.60
2018-02-05T01:09:31.435Z,51.40
2018-02-05T01:12:03.195Z,53.20
2018-02-05T01:14:36.894Z,54.80
2018-02-05T01:17:08.556Z,56.10
2018-02-05T01:19:40.227Z,56.50
2018-02-05T01:22:11.140Z,56.40
2018-02-05T01:24:42.488Z,56.00
2018-02-05T01:27:14.078Z,55.40
2018-02-05T01:29:44.980Z,55.00
2018-02-05T01:32:16.760Z,54.20
2018-02-05T01:34:47.701Z,54.20
2018-02-05T01:37:18.612Z,55.60
2018-02-05T01:39:49.535Z,55.20
2018-02-05T01:42:20.074Z,55.30
2018-02-05T01:44:51.007Z,56.30
2018-02-05T01:47:21.944Z,55.90
2018-02-05T01:49:52.646Z,54.80
2018-02-05T01:52:24.227Z,56.60
2018-02-05T01:54:55.205Z,56.90
2018-02-05T01:57:25.780Z,55.60
2018-02-05T01:59:56.630Z,56.50
2018-02-05T02:02:27.404Z,56.50
2018-02-05T02:04:59.048Z,56.00
2018-02-05T02:07:30.576Z,55.60
2018-02-05T02:10:01.361Z,55.60
2018-02-05T02:12:33.183Z,55.50
2018-02-05T02:15:04.325Z,55.80
2018-02-05T02:17:37.105Z,55.50
2018-02-05T02:20:08.161Z,55.50
2018-02-05T02:22:39.874Z,53.40
2018-02-05T02:25:10.578Z,53.40
2018-02-05T02:27:41.401Z,53.40
2018-02-05T02:30:12.167Z,53.50
2018-02-05T02:32:43.057Z,52.20
2018-02-05T02:35:14.797Z,52.80
2018-02-05T02:37:45.563Z,52.70
2018-02-05T02:40:16.266Z,52.00
2018-02-05T02:42:47.119Z,53.10
2018-02-05T02:45:18.758Z,52.10
2018-02-05T02:47:49.951Z,52.10
2018-02-05T02:50:20.494Z,51.90
2018-02-05T02:52:51.089Z,52.10
2018-02-05T02:55:22.003Z,52.70
2018-02-05T02:57:52.911Z,53.90
2018-02-05T03:00:23.875Z,53.90
2018-02-05T03:02:54.662Z,53.70
2018-02-05T03:05:25.186Z,54.30
2018-02-05T03:07:56.130Z,54.00
2018-02-05T03:10:26.915Z,53.80
2018-02-05T03:12:57.689Z,54.20
2018-02-05T03:15:28.445Z,53.50
2018-02-05T03:17:59.101Z,53.80
2018-02-05T03:20:30.039Z,54.90
2018-02-05T03:23:00.815Z,54.40
2018-02-05T03:25:32.453Z,55.00
2018-02-05T03:28:03.386Z,55.00
2018-02-05T03:30:34.308Z,54.90
2018-02-05T03:33:05.027Z,54.90
2018-02-05T03:35:35.985Z,54.30
2018-02-05T03:38:07.195Z,53.70
2018-02-05T03:40:38.039Z,53.00
2018-02-05T03:43:09.075Z,54.30
2018-02-05T03:45:40.387Z,54.00
2018-02-05T03:48:12.097Z,54.70
2018-02-05T03:50:43.087Z,54.60
2018-02-05T03:53:14.657Z,54.20
2018-02-05T03:55:46.290Z,54.10
2018-02-05T03:58:18.270Z,54.60
2018-02-05T04:00:49.221Z,54.60
2018-02-05T04:03:20.239Z,54.50
2018-02-05T04:05:51.990Z,52.40
2018-02-05T04:08:23.607Z,52.70
2018-02-05T04:10:54.403Z,52.70
2018-02-05T04:13:25.287Z,54.50
2018-02-05T04:15:56.506Z,53.40
2018-02-05T04:18:27.479Z,53.60
2018-02-05T04:20:59.960Z,52.20
2018-02-05T04:23:31.506Z,53.50
2018-02-05T04:26:02.371Z,53.90
2018-02-05T04:28:34.178Z,52.80
2018-02-05T04:31:04.960Z,52.80
2018-02-05T04:33:36.370Z,53.70
2018-02-05T04:36:07.058Z,53.70
2018-02-05T04:38:37.884Z,52.30
2018-02-05T04:41:10.334Z,52.90
2018-02-05T04:43:41.390Z,52.90
2018-02-05T04:46:13.157Z,54.10
2018-02-05T04:48:43.966Z,54.10
2018-02-05T04:51:14.690Z,53.50
2018-02-05T04:53:45.566Z,53.20
2018-02-05T04:56:17.217Z,53.30
2018-02-05T04:58:49.787Z,52.80
2018-02-05T05:01:21.022Z,52.30
2018-02-05T05:03:51.641Z,52.20
2018-02-05T05:06:23.113Z,52.60
2018-02-05T05:08:55.142Z,52.70
2018-02-05T05:11:26.433Z,52.70
2018-02-05T05:13:58.212Z,53.10
2018-02-05T05:16:29.057Z,53.20
2018-02-05T05:19:00.070Z,52.50
2018-02-05T05:21:35.295Z,52.60
2018-02-05T05:24:06.135Z,52.60
2018-02-05T05:26:38.792Z,52.10
2018-02-05T05:29:10.689Z,52.10
2018-02-05T05:31:43.463Z,51.80
2018-02-05T05:34:15.729Z,52.30
2018-02-05T05:36:48.228Z,51.00
2018-02-05T05:39:19.205Z,50.90
2018-02-05T05:41:52.602Z,51.70
2018-02-05T05:44:26.606Z,51.40
2018-02-05T05:46:57.518Z,50.50
2018-02-05T05:49:28.316Z,50.30
2018-02-05T05:52:00.514Z,51.60
2018-02-05T05:54:32.924Z,51.60
2018-02-05T05:57:04.881Z,51.00
2018-02-05T05:59:36.042Z,50.90
2018-02-05T06:02:09.430Z,50.30
2018-02-05T06:04:41.083Z,50.70
2018-02-05T06:07:14.113Z,51.40
2018-02-05T06:09:46.043Z,50.80
2018-02-05T06:12:17.830Z,50.70
2018-02-05T06:14:52.942Z,50.80
2018-02-05T06:17:26.100Z,50.70
2018-02-05T06:20:01.805Z,50.80
2018-02-05T06:22:36.022Z,51.10
2018-02-05T06:25:09.522Z,51.00
2018-02-05T06:27:42.330Z,50.80
2018-02-05T06:30:14.942Z,51.30
2018-02-05T06:32:46.200Z,50.80
2018-02-05T06:35:17.128Z,50.20
2018-02-05T06:37:48.847Z,50.30
2018-02-05T06:40:24.520Z,50.30
2018-02-05T06:42:55.810Z,50.00
2018-02-05T06:45:28.987Z,49.20
2018-02-05T06:48:01.538Z,49.40
2018-02-05T06:50:43.041Z,49.40
2018-02-05T06:53:25.363Z,50.60
2018-02-05T06:56:02.688Z,49.10
2018-02-05T06:58:33.883Z,50.20
2018-02-05T07:01:07.070Z,50.30
2018-02-05T07:03:37.858Z,50.50
2018-02-05T07:06:09.325Z,51.40
2018-02-05T07:08:40.465Z,52.30
2018-02-05T07:11:11.769Z,51.90
2018-02-05T07:13:42.583Z,49.10
2018-02-05T07:16:15.213Z,50.60
2018-02-05T07:18:46.157Z,50.20
2018-02-05T07:21:17.241Z,49.50
2018-02-05T07:23:48.039Z,50.00
2018-02-05T07:26:19.551Z,49.80
2018-02-05T07:28:50.942Z,51.40
2018-02-05T07:31:22.121Z,51.20
2018-02-05T07:33:58.661Z,50.30
2018-02-05T07:36:29.661Z,49.90
2018-02-05T07:39:02.949Z,50.70
2018-02-05T07:41:35.400Z,52.00
2018-02-05T07:44:06.599Z,51.40
2018-02-05T07:46:37.685Z,50.40
2018-02-05T07:49:08.973Z,51.00
2018-02-05T07:51:41.459Z,51.10
2018-02-05T07:54:12.347Z,51.00
2018-02-05T07:56:43.295Z,51.10
2018-02-05T07:59:14.391Z,50.80
2018-02-05T08:01:47.474Z,50.50
2018-02-05T08:04:19.390Z,50.00
2018-02-05T08:06:50.418Z,49.80
2018-02-05T08:09:21.786Z,50.10
2018-02-05T08:11:53.713Z,49.90
2018-02-05T08:14:24.882Z,49.70
2018-02-05T08:16:57.503Z,48.70
2018-02-05T08:19:29.219Z,48.70
2018-02-05T08:22:01.451Z,48.80
2018-02-05T08:24:33.150Z,49.30
2018-02-05T08:27:04.638Z,50.50
2018-02-05T08:29:36.295Z,50.10
2018-02-05T08:32:07.307Z,49.70
2018-02-05T08:34:39.578Z,48.60
2018-02-05T08:37:13.875Z,49.50
2018-02-05T08:39:44.891Z,49.40
2018-02-05T08:42:16.077Z,49.60
2018-02-05T08:44:47.966Z,50.00
2018-02-05T08:47:19.789Z,49.60
2018-02-05T08:49:52.662Z,49.40
2018-02-05T08:52:24.577Z,49.40
2018-02-05T08:54:55.587Z,49.60
2018-02-05T08:57:27.182Z,50.90
2018-02-05T08:59:58.850Z,50.90
2018-02-05T09:02:29.827Z,51.10
2018-02-05T09:05:01.691Z,51.70
2018-02-05T09:07:35.323Z,51.40
2018-02-05T09:10:06.108Z,51.40
2018-02-05T09:12:38.610Z,51.50
2018-02-05T09:15:11.129Z,53.00
2018-02-05T09:17:41.833Z,53.00
2018-02-05T09:20:13.474Z,52.40
2018-02-05T09:22:46.163Z,53.20
2018-02-05T09:25:18.185Z,52.60
2018-02-05T09:27:48.907Z,52.60
2018-02-05T09:30:21.058Z,52.20
2018-02-05T09:32:51.903Z,51.50
2018-02-05T09:35:23.363Z,52.40
2018-02-05T09:37:54.362Z,51.60
2018-02-05T09:40:26.059Z,51.80
2018-02-05T09:42:58.413Z,52.10
2018-02-05T09:45:30.360Z,50.60
2018-02-05T09:48:01.967Z,52.60
2018-02-05T09:50:33.130Z,52.40
2018-02-05T09:53:05.412Z,52.70
2018-02-05T09:55:37.320Z,52.10
2018-02-05T09:58:09.227Z,52.40
2018-02-05T10:00:42.519Z,52.40
2018-02-05T10:03:14.265Z,52.80
2018-02-05T10:05:45.522Z,52.70
2018-02-05T10:08:18.702Z,53.10
2018-02-05T10:10:49.477Z,53.00
2018-02-05T10:13:20.594Z,53.70
2018-02-05T10:15:52.858Z,53.70
2018-02-05T10:18:26.306Z,54.60
2018-02-05T10:20:58.131Z,54.00
2018-02-05T10:23:28.923Z,53.90
2018-02-05T10:26:00.616Z,54.20
2018-02-05T10:28:33.929Z,54.60
2018-02-05T10:31:04.957Z,54.60
2018-02-05T10:33:36.637Z,55.40
2018-02-05T10:36:08.431Z,55.40
2018-02-05T10:38:40.354Z,55.50
2018-02-05T10:41:11.506Z,55.40
2018-02-05T10:43:43.603Z,56.70
2018-02-05T10:46:14.730Z,57.50
2018-02-05T10:48:46.159Z,57.20
2018-02-05T10:51:16.831Z,57.00
2018-02-05T10:53:48.063Z,56.40
2018-02-05T10:56:19.583Z,56.30
2018-02-05T10:58:50.526Z,56.20
2018-02-05T11:01:21.257Z,56.70
2018-02-05T11:03:51.999Z,56.80
2018-02-05T11:06:22.629Z,57.30
2018-02-05T11:08:54.945Z,57.70
2018-02-05T11:11:26.930Z,57.80
2018-02-05T11:13:58.871Z,57.80
2018-02-05T11:16:31.871Z,57.80
2018-02-05T11:19:06.916Z,58.40
2018-02-05T11:21:39.059Z,58.70
2018-02-05T11:24:10.010Z,58.60
2018-02-05T11:26:42.532Z,58.70
2018-02-05T11:29:14.763Z,58.60
2018-02-05T11:31:46.339Z,59.00
2018-02-05T11:34:17.835Z,59.00
2018-02-05T11:36:49.574Z,58.60
2018-02-05T11:39:21.285Z,58.60
2018-02-05T11:41:54.173Z,58.60
2018-02-05T11:44:25.767Z,58.50
2018-02-05T11:46:56.674Z,58.30
2018-02-05T11:49:27.603Z,57.80
2018-02-05T11:52:01.480Z,57.40
2018-02-05T11:54:32.249Z,57.70
2018-02-05T11:57:03.130Z,57.00
2018-02-05T11:59:35.094Z,57.30
2018-02-05T12:02:06.898Z,57.60
2018-02-05T12:04:38.700Z,57.60
2018-02-05T12:07:10.355Z,57.60
2018-02-05T12:09:41.711Z,57.60
2018-02-05T12:12:13.878Z,57.90
2018-02-05T12:14:45.816Z,57.90
2018-02-05T12:17:16.638Z,58.10
2018-02-05T12:19:47.261Z,58.30
2018-02-05T12:22:18.808Z,58.20
2018-02-05T12:24:50.599Z,58.70
2018-02-05T12:27:21.341Z,58.70
2018-02-05T12:29:53.846Z,58.60
2018-02-05T12:32:26.733Z,58.20
2018-02-05T12:34:57.884Z,58.20
2018-02-05T12:37:29.529Z,57.80
2018-02-05T12:40:02.043Z,57.70
2018-02-05T12:42:34.413Z,57.40
2018-02-05T12:45:06.285Z,57.80
2018-02-05T12:47:37.434Z,57.80
2018-02-05T12:50:09.510Z,57.90
2018-02-05T12:52:41.154Z,58.00
2018-02-05T12:55:12.619Z,58.20
2018-02-05T12:57:44.371Z,57.80
2018-02-05T13:00:15.510Z,57.60
2018-02-05T13:02:50.205Z,57.60
2018-02-05T13:05:24.662Z,58.10
2018-02-05T13:07:57.426Z,58.00
2018-02-05T13:10:29.339Z,57.60
2018-02-05T13:13:00.212Z,57.70
2018-02-05T13:15:33.187Z,57.90
2018-02-05T13:18:07.649Z,58.10
2018-02-05T13:20:48.793Z,58.10
2018-02-05T13:23:20.470Z,58.70
2018-02-05T13:25:52.891Z,58.60
2018-02-05T13:28:27.629Z,58.60
2018-02-05T13:30:58.484Z,59.10
2018-02-05T13:33:30.241Z,59.20
2018-02-05T13:36:02.671Z,59.30
2018-02-05T13:38:35.080Z,59.30
2018-02-05T13:41:06.672Z,59.20
2018-02-05T13:43:38.495Z,59.20
2018-02-05T13:46:10.753Z,59.70
2018-02-05T13:48:43.156Z,59.80
2018-02-05T13:51:14.695Z,59.80
2018-02-05T13:53:47.000Z,59.90
2018-02-05T13:56:18.181Z,59.80
2018-02-05T13:58:50.078Z,59.90
2018-02-05T14:01:22.660Z,60.70
2018-02-05T14:03:54.412Z,60.70
2018-02-05T14:06:27.685Z,60.60
2018-02-05T14:08:58.832Z,60.60
2018-02-05T14:11:32.368Z,60.70
2018-02-05T14:14:03.796Z,60.70
2018-02-05T14:16:36.242Z,60.50
2018-02-05T14:19:10.877Z,60.40
2018-02-05T14:21:45.702Z,59.90
2018-02-05T14:24:17.071Z,59.90
2018-02-05T14:26:50.529Z,60.00
2018-02-05T14:29:23.072Z,60.00
2018-02-05T14:31:54.019Z,60.00
2018-02-05T14:34:28.485Z,60.10
2018-02-05T14:37:01.468Z,60.10
2018-02-05T14:39:33.747Z,60.40
2018-02-05T14:42:06.691Z,60.60
2018-02-05T14:44:39.003Z,61.10
2018-02-05T14:47:10.429Z,60.60
2018-02-05T14:49:42.514Z,60.80
2018-02-05T14:52:13.446Z,60.90
2018-02-05T14:54:45.013Z,61.20
2018-02-05T14:57:16.353Z,60.90
2018-02-05T14:59:48.525Z,60.70
2018-02-05T15:02:19.402Z,60.30
2018-02-05T15:04:50.226Z,60.10
2018-02-05T15:07:22.594Z,60.60
2018-02-05T15:09:54.957Z,60.60
2018-02-05T15:12:27.635Z,60.90
2018-02-05T15:15:03.759Z,60.40
2018-02-05T15:17:37.034Z,60.40
2018-02-05T15:20:08.370Z,60.10
2018-02-05T15:22:39.693Z,60.00
2018-02-05T15:25:13.006Z,60.10
2018-02-05T15:27:43.821Z,60.10
2018-02-05T15:30:15.956Z,60.90
2018-02-05T15:32:46.819Z,60.20
2018-02-05T15:35:18.591Z,61.30
2018-02-05T15:37:50.443Z,61.20
2018-02-05T15:40:23.103Z,61.50
2018-02-05T15:42:54.977Z,61.60
2018-02-05T15:45:26.475Z,61.30
2018-02-05T15:47:57.482Z,61.30
2018-02-05T15:50:29.149Z,62.00
2018-02-05T15:53:00.078Z,61.90
2018-02-05T15:55:31.691Z,61.70
2018-02-05T15:58:03.809Z,62.30
2018-02-05T16:00:35.845Z,62.60
2018-02-05T16:03:07.486Z,63.50
2018-02-05T16:05:38.061Z,63.50
2018-02-05T16:08:10.202Z,63.10
2018-02-05T16:10:42.751Z,62.30
2018-02-05T16:13:15.030Z,62.50
2018-02-05T16:15:46.549Z,62.50
2018-02-05T16:18:18.154Z,62.20
2018-02-05T16:20:50.193Z,62.50
2018-02-05T16:23:21.059Z,62.50
2018-02-05T16:25:52.825Z,63.30
2018-02-05T16:28:27.278Z,62.50
2018-02-05T16:30:58.061Z,62.00
2018-02-05T16:33:30.627Z,62.20
2018-02-05T16:36:02.523Z,62.20
2018-02-05T16:38:34.110Z,62.30
2018-02-05T16:41:05.496Z,62.10
2018-02-05T16:43:36.789Z,62.10
2018-02-05T16:46:08.898Z,62.00
2018-02-05T16:48:40.803Z,62.40
2018-02-05T16:51:12.480Z,62.50
2018-02-05T16:53:43.961Z,62.40
2018-02-05T16:56:14.807Z,61.50
2018-02-05T16:58:46.619Z,61.50
2018-02-05T17:01:18.421Z,61.30
2018-02-05T17:03:49.719Z,61.50
2018-02-05T17:06:21.211Z,62.10
2018-02-05T17:08:52.407Z,62.10
2018-02-05T17:11:23.220Z,61.80
2018-02-05T17:13:55.367Z,61.20
2018-02-05T17:16:27.222Z,61.00
2018-02-05T17:18:58.975Z,61.60
2018-02-05T17:21:29.818Z,61.30
2018-02-05T17:24:00.784Z,61.50
2018-02-05T17:26:33.505Z,62.00
2018-02-05T17:29:04.712Z,62.00
2018-02-05T17:31:35.381Z,62.10
2018-02-05T17:34:07.784Z,62.50
2018-02-05T17:36:38.646Z,62.00
2018-02-05T17:39:10.258Z,62.20
2018-02-05T17:41:41.043Z,61.40
2018-02-05T17:44:12.776Z,61.90
2018-02-05T17:46:43.839Z,61.80
2018-02-05T17:49:15.913Z,62.40
2018-02-05T17:51:47.739Z,62.50
2018-02-05T17:54:18.219Z,62.30
2018-02-05T17:56:48.671Z,62.40
2018-02-05T17:59:21.422Z,62.50
2018-02-05T18:01:52.546Z,62.50
2018-02-05T18:04:24.089Z,62.80
2018-02-05T18:06:55.537Z,62.80
2018-02-05T18:09:26.230Z,63.30
2018-02-05T18:11:58.878Z,63.30
2018-02-05T18:14:32.689Z,63.40
2018-02-05T18:17:03.296Z,63.90
2018-02-05T18:19:35.691Z,63.70
2018-02-05T18:22:06.462Z,63.30
2018-02-05T18:24:37.463Z,63.50
2018-02-05T18:27:09.434Z,63.80
2018-02-05T18:29:40.655Z,64.30
2018-02-05T18:32:13.109Z,64.30
2018-02-05T18:34:44.742Z,64.20
2018-02-05T18:37:15.923Z,65.20
2018-02-05T18:39:49.528Z,65.50
2018-02-05T18:42:22.005Z,65.40
2018-02-05T18:44:54.395Z,65.10
2018-02-05T18:47:25.715Z,65.10
2018-02-05T18:49:57.388Z,66.80
2018-02-05T18:52:29.864Z,67.00
2018-02-05T18:55:01.596Z,67.90
2018-02-05T18:57:33.172Z,68.00
2018-02-05T19:00:14.914Z,67.70
2018-02-05T19:02:45.850Z,67.70
2018-02-05T19:05:16.807Z,68.20
2018-02-05T19:07:47.755Z,68.90
2018-02-05T19:10:19.921Z,69.20
2018-02-05T19:12:51.383Z,68.90
2018-02-05T19:15:22.975Z,68.00
2018-02-05T19:17:53.894Z,68.70
2018-02-05T19:20:24.698Z,69.20
2018-02-05T19:22:55.686Z,69.50
2018-02-05T19:25:26.704Z,68.50
2018-02-05T19:27:58.274Z,68.10
2018-02-05T19:30:30.316Z,68.00
2018-02-05T19:33:01.986Z,67.70
2018-02-05T19:35:32.912Z,67.60
2018-02-05T19:38:04.593Z,66.90
2018-02-05T19:40:35.649Z,66.90
2018-02-05T19:43:08.418Z,69.10
2018-02-05T19:45:39.315Z,68.90
2018-02-05T19:48:11.277Z,68.40
2018-02-05T19:50:42.241Z,67.40
2018-02-05T19:53:12.895Z,66.80
2018-02-05T19:55:43.611Z,65.70
2018-02-05T19:58:15.457Z,66.80
2018-02-05T20:00:47.122Z,66.20
2018-02-05T20:03:18.674Z,65.70
2018-02-05T20:05:51.050Z,65.30
2018-02-05T20:08:22.734Z,65.30
2018-02-05T20:10:53.719Z,66.20
2018-02-05T20:13:26.316Z,67.70
2018-02-05T20:15:58.074Z,67.10
2018-02-05T20:18:28.889Z,67.10
2018-02-05T20:20:59.805Z,67.00
2018-02-05T20:23:30.795Z,68.30
2018-02-05T20:26:02.198Z,67.60
2018-02-05T20:28:33.166Z,67.50
2018-02-05T20:31:04.940Z,66.80
2018-02-05T20:33:36.476Z,66.00
2018-02-05T20:36:08.235Z,66.80
2018-02-05T20:38:39.753Z,67.20
2018-02-05T20:41:10.562Z,67.10
2018-02-05T20:43:41.460Z,66.60
2018-02-05T20:46:13.117Z,66.70
2018-02-05T20:48:45.214Z,66.40
2018-02-05T20:51:16.119Z,66.30
2018-02-05T20:53:47.759Z,67.30
2018-02-05T20:56:18.513Z,67.20
2018-02-05T20:58:50.375Z,66.80
2018-02-05T21:01:21.892Z,66.90
2018-02-05T21:03:52.598Z,66.80
2018-02-05T21:06:23.443Z,67.10
2018-02-05T21:08:54.330Z,66.60
2018-02-05T21:11:25.954Z,67.40
2018-02-05T21:13:56.917Z,67.40
2018-02-05T21:16:27.917Z,66.90
2018-02-05T21:18:59.082Z,67.20
2018-02-05T21:21:29.727Z,68.00
2018-02-05T21:24:00.471Z,68.10
2018-02-05T21:26:32.330Z,67.60
2018-02-05T21:29:03.885Z,67.10
2018-02-05T21:31:35.554Z,67.70
2018-02-05T21:34:07.309Z,66.80
2018-02-05T21:36:38.886Z,66.60
2018-02-05T21:39:09.900Z,66.60
2018-02-05T21:41:41.661Z,67.20
2018-02-05T21:44:13.318Z,67.60
2018-02-05T21:46:44.829Z,67.90
2018-02-05T21:49:15.686Z,67.90
2018-02-05T21:51:46.647Z,67.10
2018-02-05T21:54:18.372Z,66.60
2018-02-05T21:56:49.171Z,66.60
2018-02-05T21:59:20.190Z,67.70
2018-02-05T22:01:50.829Z,67.50
2018-02-05T22:04:21.739Z,67.50
2018-02-05T22:06:53.394Z,67.30
2018-02-05T22:09:24.319Z,67.20
2018-02-05T22:11:55.298Z,67.80
2018-02-05T22:14:26.235Z,68.10
2018-02-05T22:16:57.143Z,67.50
2018-02-05T22:19:28.778Z,67.80
2018-02-05T22:21:59.752Z,67.80
2018-02-05T22:24:31.334Z,67.20
2018-02-05T22:27:02.574Z,67.00
2018-02-05T22:29:34.337Z,66.60
2018-02-05T22:32:05.214Z,67.30
2018-02-05T22:34:35.729Z,67.50
2018-02-05T22:37:06.393Z,66.60
2018-02-05T22:39:38.175Z,66.40
2018-02-05T22:42:08.967Z,66.40
2018-02-05T22:44:39.749Z,65.80
2018-02-05T22:47:10.543Z,65.60
2018-02-05T22:49:41.367Z,65.50
2018-02-05T22:52:11.947Z,65.90
2018-02-05T22:54:42.855Z,65.80
2018-02-05T22:57:13.706Z,66.30
2018-02-05T22:59:45.371Z,65.60
2018-02-05T23:02:17.015Z,65.70
2018-02-05T23:04:48.497Z,65.60
2018-02-05T23:07:19.282Z,65.50
2018-02-05T23:09:50.153Z,66.40
2018-02-05T23:12:21.767Z,65.50
2018-02-05T23:14:52.802Z,65.40
2018-02-05T23:17:23.614Z,66.10
2018-02-05T23:19:54.509Z,65.60
2018-02-05T23:22:25.937Z,64.90
2018-02-05T23:24:56.762Z,64.80
2018-02-05T23:27:27.578Z,64.50
2018-02-05T23:29:58.355Z,65.10
2018-02-05T23:32:29.341Z,64.60
2018-02-05T23:35:00.294Z,65.20
2018-02-05T23:37:31.277Z,64.00
2018-02-05T23:40:02.082Z,64.20
2018-02-05T23:42:33.073Z,64.40
2018-02-05T23:45:04.811Z,64.60
2018-02-05T23:47:36.259Z,64.80
2018-02-05T23:50:07.179Z,64.80
2018-02-05T23:52:37.998Z,65.80
2018-02-05T23:55:08.895Z,65.10
2018-02-05T23:57:39.701Z,65.20
